Time;durP1;ratioP1;P1;durP2;ratioP2;P2;SDS_P1;SDS_P2;PMS_P1;PMS_P2;Temp;Humidity;BMP_temperature;BMP_pressure;BME280_temperature;BME280_humidity;BME280_pressure;Samples;Min_cycle;Max_cycle;Signal;HPM_P1;HPM_P2
2024/04/18 00:01:20;;;;;;;14.00;11.10;;;;;;;4.44;100.00;99587.70;176817;1262;46117;-81
2024/04/18 00:05:23;;;;;;;13.80;10.50;;;;;;;4.36;100.00;99588.74;176494;1260;58866;-81
2024/04/18 00:09:26;;;;;;;18.70;11.50;;;;;;;4.31;100.00;99590.45;176644;1262;46117;-83
2024/04/18 00:13:29;;;;;;;16.90;11.50;;;;;;;4.29;100.00;99593.94;176875;1262;46048;-81
2024/04/18 00:17:32;;;;;;;17.80;10.70;;;;;;;4.24;100.00;99598.86;176728;1263;46004;-80
2024/04/18 00:21:34;;;;;;;16.20;10.30;;;;;;;4.18;100.00;99597.48;176772;1262;44346;-82
2024/04/18 00:25:37;;;;;;;14.80;12.10;;;;;;;4.05;100.00;99603.19;176506;1262;58062;-85
2024/04/18 00:29:40;;;;;;;12.30;9.70;;;;;;;3.78;100.00;99604.61;176653;1262;46126;-84
2024/04/18 00:33:43;;;;;;;14.40;10.30;;;;;;;3.62;100.00;99604.27;176911;1262;46187;-85
2024/04/18 00:37:46;;;;;;;16.30;10.60;;;;;;;3.53;100.00;99607.08;176754;1262;46144;-81
2024/04/18 00:41:49;;;;;;;17.60;10.90;;;;;;;3.45;100.00;99606.50;176795;1262;46002;-84
2024/04/18 00:45:52;;;;;;;20.00;11.40;;;;;;;3.29;100.00;99613.08;176619;1262;59448;-83
2024/04/18 00:49:56;;;;;;;16.20;11.30;;;;;;;3.21;100.00;99614.98;177003;1262;46100;-85
2024/04/18 00:54:00;;;;;;;14.50;10.40;;;;;;;3.15;100.00;99614.30;176995;1262;46469;-85
2024/04/18 00:58:03;;;;;;;18.00;12.60;;;;;;;2.91;100.00;99614.90;177151;1263;45966;-84
2024/04/18 01:02:06;;;;;;;14.40;10.40;;;;;;;2.72;100.00;99614.08;176559;1262;46310;-83
2024/04/18 01:06:09;;;;;;;16.60;10.60;;;;;;;2.55;100.00;99617.52;176668;1262;59267;-85
2024/04/18 01:10:12;;;;;;;17.30;9.60;;;;;;;2.45;100.00;99618.29;177011;1262;46230;-84
2024/04/18 01:14:15;;;;;;;16.30;11.10;;;;;;;2.34;100.00;99617.89;177703;1262;46048;-85
2024/04/18 01:18:18;;;;;;;18.40;13.00;;;;;;;2.27;100.00;99619.54;176847;1262;46491;-84
2024/04/18 01:22:21;;;;;;;18.10;11.50;;;;;;;2.21;100.00;99616.89;176703;1262;46891;-84
2024/04/18 01:26:24;;;;;;;18.00;11.00;;;;;;;2.19;100.00;99613.73;176898;1262;58087;-84
2024/04/18 01:30:27;;;;;;;16.90;10.70;;;;;;;2.17;100.00;99615.73;177042;1262;46126;-84
2024/04/18 01:34:30;;;;;;;13.30;10.60;;;;;;;2.18;100.00;99618.14;176800;1262;46141;-84
2024/04/18 01:38:33;;;;;;;17.20;10.50;;;;;;;2.17;100.00;99619.06;176513;1262;46259;-85
2024/04/18 01:42:36;;;;;;;20.70;11.50;;;;;;;2.19;100.00;99619.50;176565;1262;46225;-85
2024/04/18 01:46:39;;;;;;;15.90;10.50;;;;;;;2.19;100.00;99623.50;176650;1265;57433;-82
2024/04/18 01:50:42;;;;;;;17.00;11.80;;;;;;;2.22;100.00;99625.91;176650;1262;46071;-82
2024/04/18 01:54:44;;;;;;;17.20;13.40;;;;;;;2.28;100.00;99622.63;176848;1262;46032;-81
2024/04/18 01:58:47;;;;;;;22.30;11.60;;;;;;;2.27;100.00;99624.93;176821;1262;46237;-81
2024/04/18 02:02:50;;;;;;;16.80;12.90;;;;;;;2.16;100.00;99629.96;176942;1262;46039;-80
2024/04/18 02:06:53;;;;;;;22.00;11.20;;;;;;;2.14;100.00;99628.48;176873;1262;59494;-81
2024/04/18 02:10:56;;;;;;;14.20;9.90;;;;;;;2.18;100.00;99632.98;176874;1263;46056;-81
2024/04/18 02:14:59;;;;;;;15.00;10.60;;;;;;;2.14;100.00;99632.48;177129;1262;46185;-82
2024/04/18 02:19:02;;;;;;;15.80;10.90;;;;;;;2.10;100.00;99631.48;177086;1262;46086;-81
2024/04/18 02:23:05;;;;;;;17.60;11.10;;;;;;;2.17;100.00;99633.92;176884;1262;46490;-82
2024/04/18 02:27:08;;;;;;;15.00;11.70;;;;;;;2.24;100.00;99633.67;176954;1262;57463;-83
2024/04/18 02:31:11;;;;;;;12.90;10.00;;;;;;;2.28;100.00;99632.94;176695;1262;46146;-84
2024/04/18 02:35:13;;;;;;;21.50;12.20;;;;;;;2.27;100.00;99630.71;176547;1260;46234;-85
2024/04/18 02:39:16;;;;;;;20.40;11.90;;;;;;;2.25;100.00;99632.92;177094;1265;46224;-85
2024/04/18 02:43:19;;;;;;;20.70;11.40;;;;;;;2.27;100.00;99635.77;177017;1263;46046;-84
2024/04/18 02:47:22;;;;;;;17.30;11.10;;;;;;;2.36;100.00;99639.84;176608;1262;59817;-85
2024/04/18 02:51:25;;;;;;;18.30;12.20;;;;;;;2.45;100.00;99641.39;176516;1260;46052;-84
2024/04/18 02:55:28;;;;;;;22.10;13.10;;;;;;;2.58;100.00;99641.88;176756;1262;44782;-85
2024/04/18 02:59:31;;;;;;;18.80;13.10;;;;;;;2.67;100.00;99638.18;179100;1263;46141;-85
2024/04/18 03:03:33;;;;;;;19.20;12.40;;;;;;;2.77;100.00;99635.52;177168;1261;45912;-84
2024/04/18 03:07:36;;;;;;;14.90;12.60;;;;;;;2.85;100.00;99640.13;176672;1262;58312;-84
2024/04/18 03:11:39;;;;;;;18.90;12.00;;;;;;;2.96;100.00;99642.41;176639;1262;45999;-85
2024/04/18 03:15:45;;;;;;;15.70;10.30;;;;;;;3.06;100.00;99645.70;176891;1262;46180;-84
2024/04/18 03:19:49;;;;;;;19.50;11.90;;;;;;;3.10;100.00;99649.10;176741;1261;46135;-83
2024/04/18 03:23:52;;;;;;;15.00;11.50;;;;;;;3.17;100.00;99649.42;177201;1263;46030;-82
2024/04/18 03:27:54;;;;;;;16.90;10.60;;;;;;;3.23;100.00;99649.60;177081;1262;57988;-82
2024/04/18 03:31:57;;;;;;;19.30;12.60;;;;;;;3.28;100.00;99649.96;176478;1264;46022;-84
2024/04/18 03:36:04;;;;;;;17.20;10.70;;;;;;;3.34;100.00;99652.96;176495;1262;45940;-83
2024/04/18 03:40:07;;;;;;;15.20;10.90;;;;;;;3.36;100.00;99654.23;176335;1262;46066;-84
2024/04/18 03:44:10;;;;;;;12.80;10.30;;;;;;;3.37;100.00;99657.84;176630;1264;46137;-85
2024/04/18 03:48:13;;;;;;;16.60;11.20;;;;;;;3.42;100.00;99659.45;176775;1266;59673;-84
2024/04/18 03:52:16;;;;;;;15.70;10.90;;;;;;;3.50;100.00;99663.34;177082;1262;46044;-84
2024/04/18 03:56:19;;;;;;;14.90;11.00;;;;;;;3.59;100.00;99663.68;176661;1263;45929;-84
2024/04/18 04:00:22;;;;;;;20.60;11.50;;;;;;;3.56;100.00;99672.98;176508;1264;46230;-81
2024/04/18 04:04:25;;;;;;;21.60;11.40;;;;;;;3.59;100.00;99671.05;176722;1262;46052;-84
2024/04/18 04:08:28;;;;;;;21.70;13.00;;;;;;;3.63;100.00;99678.84;176903;1263;59593;-83
2024/04/18 04:12:31;;;;;;;18.90;12.90;;;;;;;3.66;100.00;99676.37;176497;1264;46222;-84
2024/04/18 04:16:34;;;;;;;17.40;12.40;;;;;;;3.69;100.00;99681.27;176799;1264;46136;-82
2024/04/18 04:20:36;;;;;;;18.30;13.60;;;;;;;3.70;100.00;99686.63;176323;1266;46251;-83
2024/04/18 04:24:39;;;;;;;12.70;11.30;;;;;;;3.69;100.00;99690.56;176788;1268;46128;-83
2024/04/18 04:28:42;;;;;;;17.90;12.90;;;;;;;3.72;100.00;99690.23;176952;1262;58174;-83
2024/04/18 04:32:45;;;;;;;24.00;13.70;;;;;;;3.77;100.00;99698.52;177370;1262;46117;-83
2024/04/18 04:36:48;;;;;;;20.50;11.10;;;;;;;3.82;100.00;99695.01;176767;1263;46243;-83
2024/04/18 04:40:51;;;;;;;15.70;10.70;;;;;;;3.91;100.00;99696.39;176725;1262;46059;-82
2024/04/18 04:44:54;;;;;;;18.00;14.60;;;;;;;3.98;100.00;99699.80;176774;1262;46108;-81
2024/04/18 04:48:57;;;;;;;17.30;13.90;;;;;;;4.05;100.00;99701.50;176982;1261;59427;-83
2024/04/18 04:53:00;;;;;;;19.00;12.10;;;;;;;4.09;100.00;99704.35;176302;1262;46166;-82
2024/04/18 04:57:03;;;;;;;20.40;12.10;;;;;;;4.12;100.00;99699.27;177010;1262;44174;-84
2024/04/18 05:01:06;;;;;;;16.70;11.90;;;;;;;4.19;100.00;99708.30;176668;1262;46105;-84
2024/04/18 05:05:08;;;;;;;14.70;11.10;;;;;;;4.27;100.00;99721.65;176907;1262;46111;-83
2024/04/18 05:09:16;;;;;;;22.10;13.30;;;;;;;4.38;100.00;99725.68;177019;1262;58364;-82
2024/04/18 05:13:19;;;;;;;18.30;12.90;;;;;;;4.46;100.00;99724.00;177388;1262;46037;-83
2024/04/18 05:17:21;;;;;;;16.50;10.40;;;;;;;4.53;100.00;99735.77;176915;1265;46150;-84
2024/04/18 05:21:25;;;;;;;14.40;9.70;;;;;;;4.65;100.00;99740.83;176582;1265;45294;-80
2024/04/18 05:25:27;;;;;;;15.30;11.00;;;;;;;4.71;100.00;99749.39;177293;1263;46078;-83
2024/04/18 05:33:52;;;;;;;15.40;11.50;;;;;;;4.48;100.00;99770.92;176757;1263;46122;-81
2024/04/18 05:37:55;;;;;;;20.70;13.70;;;;;;;4.38;100.00;99780.81;177016;1262;46076;-84
2024/04/18 05:41:58;;;;;;;26.40;13.30;;;;;;;4.21;100.00;99783.27;176998;1263;46160;-85
2024/04/18 05:46:00;;;;;;;27.50;15.30;;;;;;;4.03;100.00;99784.62;177425;1262;46053;-83
2024/04/18 05:50:04;;;;;;;20.10;15.80;;;;;;;3.99;100.00;99783.64;176766;1263;57996;-86
2024/04/18 05:54:07;;;;;;;19.50;12.80;;;;;;;4.00;100.00;99781.66;177359;1262;46127;-84
2024/04/18 05:58:10;;;;;;;19.60;15.50;;;;;;;3.97;100.00;99785.19;177567;1262;46016;-83
2024/04/18 06:02:12;;;;;;;24.30;16.30;;;;;;;4.01;100.00;99787.38;176992;1265;45998;-84
2024/04/18 06:06:15;;;;;;;17.90;13.40;;;;;;;4.09;100.00;99787.73;176687;1263;46027;-83
2024/04/18 06:10:18;;;;;;;22.00;11.80;;;;;;;4.21;100.00;99791.70;176812;1262;58514;-84
2024/04/18 06:14:20;;;;;;;20.80;16.10;;;;;;;4.29;100.00;99792.64;176618;1263;46270;-84
2024/04/18 06:18:23;;;;;;;16.60;14.00;;;;;;;4.45;100.00;99793.38;176889;1262;46091;-83
2024/04/18 06:22:26;;;;;;;18.50;13.30;;;;;;;4.53;100.00;99796.77;176629;1261;46227;-83
2024/04/18 06:26:28;;;;;;;18.70;15.60;;;;;;;4.64;100.00;99797.09;176586;1262;45995;-84
2024/04/18 06:30:31;;;;;;;17.20;15.40;;;;;;;4.76;100.00;99799.52;176530;1262;59740;-83
2024/04/18 06:34:34;;;;;;;19.60;14.80;;;;;;;5.02;100.00;99804.86;176750;1265;46138;-83
2024/04/18 06:38:37;;;;;;;18.80;13.30;;;;;;;5.20;100.00;99798.36;176816;1263;46097;-84
2024/04/18 06:42:40;;;;;;;21.80;16.00;;;;;;;5.28;100.00;99803.95;177312;1263;46133;-83
2024/04/18 06:46:44;;;;;;;21.60;13.40;;;;;;;5.35;100.00;99811.25;176857;1263;46011;-83
2024/04/18 06:51:01;;;;;;;18.90;14.20;;;;;;;5.35;100.00;99820.75;176877;1262;57906;-84
2024/04/18 06:55:04;;;;;;;19.20;14.30;;;;;;;5.34;100.00;99834.16;176505;1263;46064;-83
2024/04/18 06:59:07;;;;;;;22.90;17.20;;;;;;;5.13;100.00;99846.81;176738;1262;46168;-84
2024/04/18 07:03:12;;;;;;;26.40;16.10;;;;;;;5.15;100.00;99851.79;176681;1262;46349;-83
2024/04/18 07:07:15;;;;;;;25.70;17.40;;;;;;;5.12;100.00;99855.64;176661;1262;45888;-84
2024/04/18 07:11:18;;;;;;;25.40;17.00;;;;;;;5.15;100.00;99861.95;176682;1263;59440;-85
2024/04/18 07:15:21;;;;;;;22.70;15.90;;;;;;;5.26;100.00;99861.79;176668;1263;46117;-84
2024/04/18 07:19:24;;;;;;;24.20;18.90;;;;;;;5.53;100.00;99858.08;177213;1265;46240;-83
2024/04/18 07:23:27;;;;;;;21.50;17.00;;;;;;;5.91;100.00;99855.84;176826;1262;46173;-84
2024/04/18 07:27:29;;;;;;;17.70;15.00;;;;;;;6.41;100.00;99856.80;176828;1263;46052;-84
2024/04/18 07:31:32;;;;;;;24.40;17.00;;;;;;;6.82;100.00;99860.40;177218;1263;59398;-84
2024/04/18 07:35:35;;;;;;;22.90;16.20;;;;;;;7.07;100.00;99857.33;177738;1263;46140;-81
2024/04/18 07:39:39;;;;;;;23.60;16.60;;;;;;;7.30;100.00;99856.22;176972;1263;46205;-84
2024/04/18 07:43:41;;;;;;;28.30;20.10;;;;;;;7.58;100.00;99857.30;176845;1262;46066;-85
2024/04/18 07:47:45;;;;;;;24.10;19.30;;;;;;;7.50;100.00;99862.23;176656;1263;46058;-85
2024/04/18 07:51:48;;;;;;;23.60;17.50;;;;;;;7.30;100.00;99869.09;176685;1262;59440;-84
2024/04/18 07:55:51;;;;;;;27.00;18.30;;;;;;;7.37;100.00;99869.95;176651;1264;46025;-82
2024/04/18 07:59:54;;;;;;;21.20;16.00;;;;;;;7.46;100.00;99871.08;176752;1263;46123;-82
2024/04/18 08:03:57;;;;;;;23.60;12.60;;;;;;;7.46;100.00;99879.20;176686;1263;46126;-84
2024/04/18 08:08:20;;;;;;;21.70;15.60;;;;;;;7.34;100.00;99887.46;176697;1268;46035;-84
2024/04/18 08:12:27;;;;;;;16.90;12.20;;;;;;;7.35;100.00;99889.83;176963;1267;59615;-84
2024/04/18 08:16:36;;;;;;;13.80;11.70;;;;;;;7.45;100.00;99888.10;176656;1263;46272;-82
2024/04/18 08:20:40;;;;;;;15.80;10.80;;;;;;;7.49;100.00;99893.42;176888;1262;46458;-83
2024/04/18 08:24:43;;;;;;;18.80;11.80;;;;;;;7.44;100.00;99894.13;176652;1263;46248;-84
2024/04/18 08:28:45;;;;;;;9.80;8.80;;;;;;;7.48;100.00;99893.86;176685;1265;205844;-83
2024/04/18 08:32:48;;;;;;;14.10;8.60;;;;;;;7.41;100.00;99893.49;176484;1266;58726;-81
2024/04/18 08:36:50;;;;;;;10.80;9.20;;;;;;;7.43;100.00;99894.58;177549;1263;46011;-84
2024/04/18 08:41:00;;;;;;;8.80;6.60;;;;;;;7.36;100.00;99895.80;176521;1263;46119;-84
2024/04/18 08:45:07;;;;;;;9.40;6.30;;;;;;;7.24;99.84;99899.30;176923;1265;45950;-84
2024/04/18 08:49:11;;;;;;;5.80;5.00;;;;;;;7.42;97.76;99896.94;176816;1263;46060;-84
2024/04/18 08:53:13;;;;;;;5.60;4.80;;;;;;;7.68;97.68;99892.51;176751;1262;59225;-84
2024/04/18 08:57:21;;;;;;;10.00;5.70;;;;;;;7.94;94.87;99891.11;176891;1263;46136;-84
2024/04/18 09:01:25;;;;;;;7.80;6.60;;;;;;;7.67;98.10;99895.94;176629;1265;46199;-84
2024/04/18 09:05:27;;;;;;;10.20;7.20;;;;;;;7.41;99.53;99905.13;177045;1266;46346;-84
2024/04/18 09:09:30;;;;;;;12.40;7.30;;;;;;;7.29;100.00;99907.77;176689;1263;45997;-82
2024/04/18 09:13:34;;;;;;;8.60;7.00;;;;;;;7.63;99.47;99904.73;176670;1262;59337;-84
2024/04/18 09:17:36;;;;;;;7.40;5.90;;;;;;;7.69;92.71;99906.74;176579;1265;46014;-84
2024/04/18 09:21:39;;;;;;;5.70;5.00;;;;;;;7.85;94.70;99906.96;176695;1262;46247;-84
2024/04/18 09:25:42;;;;;;;5.40;4.00;;;;;;;8.35;94.76;99909.63;176917;1263;44611;-83
2024/04/18 09:29:47;;;;;;;6.00;4.10;;;;;;;8.61;87.46;99913.16;177349;1266;46035;-85
2024/04/18 09:33:51;;;;;;;3.60;3.20;;;;;;;8.93;87.15;99909.88;177063;1264;59307;-84
2024/04/18 09:37:54;;;;;;;3.20;2.90;;;;;;;8.85;83.38;99917.80;176816;1266;46249;-84
2024/04/18 09:42:13;;;;;;;3.40;2.70;;;;;;;8.79;78.89;99917.54;176688;1267;46169;-84
2024/04/18 09:46:18;;;;;;;4.80;3.40;;;;;;;9.06;78.94;99919.84;176891;1266;46590;-83
2024/04/18 09:50:21;;;;;;;4.20;3.10;;;;;;;9.25;80.73;99920.04;176721;1265;46072;-84
2024/04/18 09:54:25;;;;;;;2.10;1.60;;;;;;;9.26;75.40;99913.42;176591;1263;58433;-84
2024/04/18 09:58:28;;;;;;;4.60;3.10;;;;;;;9.44;74.69;99908.60;177117;1262;44083;-83
2024/04/18 10:02:32;;;;;;;2.90;2.60;;;;;;;9.59;74.18;99903.05;177105;1266;46131;-84
2024/04/18 10:06:39;;;;;;;3.00;2.80;;;;;;;9.83;74.92;99901.06;176606;1262;46158;-84
2024/04/18 10:10:43;;;;;;;5.50;3.30;;;;;;;9.83;73.69;99904.98;177248;1265;46029;-84
2024/04/18 10:14:47;;;;;;;4.10;3.00;;;;;;;9.30;75.87;99919.98;176762;1265;58152;-84
2024/04/18 10:18:51;;;;;;;3.70;3.00;;;;;;;8.71;82.79;99924.39;176680;1263;46054;-84
2024/04/18 10:23:00;;;;;;;4.00;2.90;;;;;;;8.23;84.61;99922.38;176667;1264;46157;-82
2024/04/18 10:27:15;;;;;;;3.30;2.90;;;;;;;8.07;90.35;99918.67;176603;1264;46147;-85
2024/04/18 10:31:18;;;;;;;2.80;2.50;;;;;;;8.39;90.20;99916.25;176512;1264;46452;-83
2024/04/18 10:35:23;;;;;;;4.00;2.30;;;;;;;8.67;86.52;99908.08;176706;1264;59338;-84
2024/04/18 10:39:30;;;;;;;4.60;2.50;;;;;;;9.05;83.88;99914.57;176412;1263;46472;-85
2024/04/18 10:43:34;;;;;;;2.00;1.50;;;;;;;9.02;76.76;99918.73;176373;1264;46215;-85
2024/04/18 10:47:39;;;;;;;1.80;1.60;;;;;;;8.90;77.45;99921.61;176892;1265;46681;-86
2024/04/18 10:51:42;;;;;;;4.10;1.80;;;;;;;9.03;76.08;99914.89;177202;1263;46004;-85
2024/04/18 10:55:46;;;;;;;2.80;1.80;;;;;;;9.35;76.68;99913.08;176469;1264;59404;-85
2024/04/18 10:59:49;;;;;;;1.30;1.20;;;;;;;9.23;73.58;99923.90;176393;1261;46044;-86
2024/04/18 11:03:52;;;;;;;3.40;1.90;;;;;;;8.89;76.97;99923.65;176341;1265;46097;-85
2024/04/18 11:07:55;;;;;;;5.80;2.30;;;;;;;9.03;79.76;99926.05;176592;1262;45991;-85
2024/04/18 11:11:58;;;;;;;3.70;2.30;;;;;;;9.26;80.21;99936.95;176769;1264;46126;-86
2024/04/18 11:16:02;;;;;;;1.90;1.60;;;;;;;9.11;79.24;99934.77;176788;1263;59311;-84
2024/04/18 11:20:08;;;;;;;2.00;1.80;;;;;;;9.14;82.64;99931.90;176857;1264;45969;-85
2024/04/18 11:24:10;;;;;;;3.50;1.30;;;;;;;9.35;77.05;99933.05;176641;1261;46023;-84
2024/04/18 11:28:13;;;;;;;1.70;1.20;;;;;;;9.57;72.21;99926.30;177563;1263;46102;-86
2024/04/18 11:32:16;;;;;;;2.90;1.50;;;;;;;9.61;68.80;99923.27;176770;1263;46075;-83
2024/04/18 11:36:19;;;;;;;1.20;0.90;;;;;;;9.50;66.42;99926.50;176692;1264;58259;-86
2024/04/18 11:40:22;;;;;;;4.20;1.10;;;;;;;9.54;69.69;99927.06;177191;1264;46154;-82
2024/04/18 11:44:24;;;;;;;2.40;1.40;;;;;;;9.82;68.13;99924.35;176557;1263;44844;-84
2024/04/18 11:48:27;;;;;;;1.90;1.40;;;;;;;10.20;66.83;99922.08;176977;1266;46019;-85
2024/04/18 11:52:29;;;;;;;1.80;1.40;;;;;;;9.99;70.87;99936.07;177111;1264;46090;-84
2024/04/18 11:56:32;;;;;;;1.90;1.50;;;;;;;9.87;72.83;99934.77;176535;1264;58578;-84
2024/04/18 12:00:35;;;;;;;1.80;1.20;;;;;;;9.93;71.11;99925.93;177067;1264;45985;-85
2024/04/18 12:04:39;;;;;;;3.00;1.30;;;;;;;10.09;69.11;99926.20;176950;1262;46058;-84
2024/04/18 12:08:44;;;;;;;3.40;1.30;;;;;;;10.34;67.37;99924.80;176993;1264;46049;-83
2024/04/18 12:12:49;;;;;;;1.30;0.90;;;;;;;10.10;69.18;99937.21;176366;1264;46045;-83
2024/04/18 12:16:51;;;;;;;1.00;0.60;;;;;;;9.49;71.41;99938.95;176898;1263;58100;-83
2024/04/18 12:20:54;;;;;;;0.70;0.40;;;;;;;9.37;75.16;99933.94;176676;1263;45986;-84
2024/04/18 12:24:58;;;;;;;4.10;1.20;;;;;;;9.63;73.61;99928.47;176738;1264;46602;-82
2024/04/18 12:29:02;;;;;;;0.90;0.80;;;;;;;10.11;70.00;99923.54;176500;1264;46273;-85
2024/04/18 12:33:05;;;;;;;0.60;0.50;;;;;;;10.62;69.71;99920.98;176342;1263;44180;-85
2024/04/18 12:37:08;;;;;;;1.80;1.40;;;;;;;10.82;62.77;99919.08;176568;1264;59631;-85
2024/04/18 12:41:11;;;;;;;0.80;0.60;;;;;;;10.86;63.19;99913.02;176269;1264;46062;-85
2024/04/18 12:45:14;;;;;;;2.50;0.90;;;;;;;10.69;63.68;99918.55;176379;1264;46000;-83
2024/04/18 12:49:16;;;;;;;1.20;0.70;;;;;;;10.56;61.11;99919.34;176500;1264;46064;-85
2024/04/18 12:53:20;;;;;;;0.70;0.60;;;;;;;10.42;59.42;99917.49;176690;1264;46615;-82
2024/04/18 12:57:23;;;;;;;0.60;0.50;;;;;;;10.33;60.20;99922.52;176542;1264;58337;-85
2024/04/18 13:01:26;;;;;;;3.90;1.00;;;;;;;10.30;60.78;99923.55;176298;1263;46129;-84
2024/04/18 13:05:28;;;;;;;1.20;0.90;;;;;;;10.18;63.64;99931.60;176423;1264;46190;-85
2024/04/18 13:09:32;;;;;;;1.20;0.90;;;;;;;10.17;65.64;99931.35;176550;1263;46257;-84
2024/04/18 13:13:35;;;;;;;1.70;0.90;;;;;;;10.03;65.75;99930.77;176498;1263;46141;-83
2024/04/18 13:17:38;;;;;;;1.60;1.20;;;;;;;9.97;65.54;99930.76;177402;1263;60696;-83
2024/04/18 13:21:41;;;;;;;1.20;0.90;;;;;;;9.89;65.50;99932.81;177065;1263;47447;-83
2024/04/18 13:25:44;;;;;;;1.40;1.30;;;;;;;9.74;66.18;99941.71;176987;1264;46150;-85
2024/04/18 13:29:47;;;;;;;2.40;1.50;;;;;;;9.56;69.75;99946.53;176489;1262;46115;-85
2024/04/18 13:33:52;;;;;;;2.10;1.30;;;;;;;9.58;74.64;99941.79;176404;1263;46417;-85
2024/04/18 13:37:59;;;;;;;1.90;0.70;;;;;;;9.61;73.27;99938.71;177463;1263;57785;-84
2024/04/18 13:42:02;;;;;;;1.30;0.90;;;;;;;9.45;67.10;99943.34;176390;1262;46146;-84
2024/04/18 13:46:05;;;;;;;0.50;0.50;;;;;;;9.24;65.22;99940.64;176536;1262;46171;-85
2024/04/18 13:50:08;;;;;;;1.30;0.90;;;;;;;8.84;69.99;99964.70;176393;1264;46577;-84
2024/04/18 13:54:10;;;;;;;5.60;1.00;;;;;;;7.86;85.92;99995.35;176913;1262;46017;-85
2024/04/18 13:58:13;;;;;;;1.40;1.10;;;;;;;6.98;95.03;100017.75;176760;1263;60754;-85
2024/04/18 14:02:16;;;;;;;2.00;1.60;;;;;;;6.34;100.00;100021.44;176970;1263;46126;-85
2024/04/18 14:06:19;;;;;;;1.50;1.40;;;;;;;6.12;100.00;100028.55;176979;1262;44078;-85
2024/04/18 14:10:22;;;;;;;3.30;1.90;;;;;;;6.07;100.00;100029.27;177150;1262;46120;-86
2024/04/18 14:14:25;;;;;;;2.40;1.80;;;;;;;6.08;100.00;100031.95;176632;1262;46191;-87
2024/04/18 14:18:50;;;;;;;;;;;;;;;6.25;100.00;100025.06;176827;1262;59283;-86
2024/04/18 14:22:53;;;;;;;1.30;0.60;;;;;;;6.50;100.00;100019.98;176638;1264;46108;-87
2024/04/18 14:26:56;;;;;;;2.60;0.80;;;;;;;6.78;100.00;100017.16;177203;1262;45966;-85
2024/04/18 14:30:59;;;;;;;1.10;0.90;;;;;;;7.07;100.00;100018.67;176954;1262;46166;-84
2024/04/18 14:35:03;;;;;;;5.50;1.50;;;;;;;7.20;99.42;100017.63;176498;1263;46112;-85
2024/04/18 14:39:07;;;;;;;4.90;2.30;;;;;;;7.16;96.91;100017.20;177023;1262;59597;-86
2024/04/18 14:43:10;;;;;;;2.30;1.30;;;;;;;7.19;96.51;100014.52;176716;1263;46138;-85
2024/04/18 14:47:16;;;;;;;13.00;7.00;;;;;;;7.29;98.09;100012.02;176866;1262;46070;-86
2024/04/18 14:51:19;;;;;;;9.70;5.30;;;;;;;7.47;99.73;100010.73;176683;1262;46096;-83
2024/04/18 14:55:27;;;;;;;5.20;3.60;;;;;;;7.68;97.63;100010.08;176741;1263;46022;-84
2024/04/18 14:59:30;;;;;;;0.60;0.60;;;;;;;8.02;97.38;100007.73;176372;1262;58731;-85
2024/04/18 15:03:33;;;;;;;3.00;0.90;;;;;;;8.35;97.49;100004.34;176483;1262;46042;-85
2024/04/18 15:07:36;;;;;;;0.70;0.70;;;;;;;8.55;91.84;100002.15;176949;1263;46234;-86
2024/04/18 15:11:39;;;;;;;102.00;50.60;;;;;;;8.63;91.13;100002.20;176346;1261;46249;-85
2024/04/18 15:15:42;;;;;;;106.20;52.60;;;;;;;8.80;90.41;100002.73;176562;1262;46230;-84
2024/04/18 15:19:45;;;;;;;3.00;1.70;;;;;;;8.76;91.55;100002.45;176494;1262;58115;-85
2024/04/18 15:23:48;;;;;;;7.50;6.20;;;;;;;8.46;93.52;100002.30;176344;1262;46121;-85
2024/04/18 15:27:51;;;;;;;1.00;0.70;;;;;;;8.28;85.91;100012.70;177051;1262;46194;-85
2024/04/18 15:31:53;;;;;;;2.50;0.80;;;;;;;8.26;81.89;100013.20;176525;1266;46113;-85
2024/04/18 15:35:56;;;;;;;1.20;0.60;;;;;;;8.34;81.91;100013.08;176521;1262;46135;-85
2024/04/18 15:40:00;;;;;;;1.60;0.80;;;;;;;8.48;81.76;100009.19;176572;1266;58384;-85
2024/04/18 15:44:03;;;;;;;1.30;0.70;;;;;;;8.44;79.11;100012.50;176561;1263;46137;-85
2024/04/18 15:48:07;;;;;;;1.60;0.50;;;;;;;8.49;77.93;100010.40;176332;1263;44735;-85
2024/04/18 15:52:13;;;;;;;2.30;1.10;;;;;;;8.58;77.19;100011.68;176450;1262;46237;-84
2024/04/18 15:56:18;;;;;;;0.50;0.30;;;;;;;8.71;74.89;100009.61;176413;1267;46320;-83
2024/04/18 16:00:21;;;;;;;1.60;0.70;;;;;;;8.83;74.28;100011.15;176553;1263;59576;-85
2024/04/18 16:04:23;;;;;;;10.80;7.50;;;;;;;8.89;74.26;100021.13;177290;1263;46081;-84
2024/04/18 16:08:27;;;;;;;3.80;1.70;;;;;;;8.88;73.29;100021.32;178726;1263;46011;-85
2024/04/18 16:12:29;;;;;;;4.10;1.70;;;;;;;8.79;71.75;100025.23;176976;1262;46090;-83
2024/04/18 16:16:32;;;;;;;1.30;1.00;;;;;;;8.77;72.81;100028.55;176618;1262;46189;-85
2024/04/18 16:20:35;;;;;;;1.00;0.70;;;;;;;8.62;72.26;100033.80;176488;1262;59087;-84
2024/04/18 16:24:39;;;;;;;1.90;1.70;;;;;;;8.65;75.19;100037.64;177020;1262;46122;-85
2024/04/18 16:28:42;;;;;;;1.50;1.40;;;;;;;8.61;75.02;100038.29;176617;1262;46141;-84
2024/04/18 16:32:47;;;;;;;1.40;1.00;;;;;;;8.54;75.46;100042.38;176221;1262;46005;-84
2024/04/18 16:36:50;;;;;;;4.50;1.60;;;;;;;8.39;78.15;100051.43;176601;1263;46054;-84
2024/04/18 16:41:13;;;;;;;1.40;1.20;;;;;;;8.17;79.82;100056.09;176352;1262;58392;-86
2024/04/18 16:45:15;;;;;;;2.90;1.80;;;;;;;8.00;80.07;100059.45;176770;1261;46173;-83
2024/04/18 16:49:18;;;;;;;2.00;1.10;;;;;;;7.80;80.04;100062.69;176327;1263;46160;-85
2024/04/18 16:53:21;;;;;;;2.60;1.60;;;;;;;7.68;81.33;100067.05;176463;1262;46175;-83
2024/04/18 16:57:24;;;;;;;2.00;1.00;;;;;;;7.56;84.09;100066.70;176527;1265;46160;-84
2024/04/18 17:01:27;;;;;;;2.30;0.80;;;;;;;7.44;84.46;100062.98;176610;1265;58361;-83
2024/04/18 17:05:30;;;;;;;1.40;1.30;;;;;;;7.37;84.63;100064.04;176410;1263;46058;-85
2024/04/18 17:09:33;;;;;;;0.80;0.60;;;;;;;7.32;86.19;100065.41;176595;1262;46217;-84
2024/04/18 17:13:36;;;;;;;1.40;0.60;;;;;;;7.29;87.02;100067.75;176718;1262;46079;-85
2024/04/18 17:17:39;;;;;;;22.10;10.00;;;;;;;7.25;85.46;100073.29;176790;1262;46093;-84
2024/04/18 17:21:43;;;;;;;41.50;23.70;;;;;;;7.20;83.80;100071.73;177496;1262;57927;-83
2024/04/18 17:25:50;;;;;;;23.20;10.80;;;;;;;7.16;82.01;100073.80;176528;1263;46175;-84
2024/04/18 17:29:53;;;;;;;16.40;11.60;;;;;;;7.05;81.62;100076.15;177192;1262;48338;-84
2024/04/18 17:33:56;;;;;;;3.70;2.80;;;;;;;6.90;84.68;100076.25;176293;1262;46008;-83
2024/04/18 17:38:00;;;;;;;2.80;2.20;;;;;;;6.78;87.40;100077.65;176717;1263;46071;-82
2024/04/18 17:42:03;;;;;;;2.80;1.50;;;;;;;6.56;91.22;100080.20;176946;1262;59545;-83
2024/04/18 17:46:06;;;;;;;6.40;2.80;;;;;;;6.20;96.49;100088.05;178007;1262;46150;-84
2024/04/18 17:50:09;;;;;;;1.80;1.50;;;;;;;5.76;100.00;100094.91;176618;1262;46224;-84
2024/04/18 17:54:12;;;;;;;3.90;2.20;;;;;;;5.40;100.00;100098.30;176972;1262;47096;-82
2024/04/18 17:58:15;;;;;;;3.70;3.40;;;;;;;5.12;100.00;100102.27;176427;1262;46015;-84
2024/04/18 18:02:18;;;;;;;5.20;3.10;;;;;;;4.93;100.00;100103.45;176980;1262;58321;-84
2024/04/18 18:06:21;;;;;;;5.00;2.80;;;;;;;4.92;100.00;100104.77;176521;1262;46106;-83
2024/04/18 18:10:24;;;;;;;5.10;3.80;;;;;;;4.99;100.00;100111.69;177122;1262;46223;-83
2024/04/18 18:14:26;;;;;;;5.50;4.00;;;;;;;5.09;100.00;100107.37;177177;1262;45953;-85
2024/04/18 18:18:29;;;;;;;7.20;4.70;;;;;;;5.19;100.00;100110.10;177285;1262;46078;-84
2024/04/18 18:22:32;;;;;;;31.40;15.70;;;;;;;5.27;100.00;100111.73;177297;1262;59494;-81
2024/04/18 18:26:35;;;;;;;87.60;45.90;;;;;;;5.35;100.00;100113.55;176867;1266;46107;-84
2024/04/18 18:30:38;;;;;;;186.20;91.10;;;;;;;5.46;100.00;100118.30;176947;1262;46111;-84
2024/04/18 18:34:45;;;;;;;15.60;10.10;;;;;;;5.61;100.00;100125.62;176454;1262;45983;-84
2024/04/18 18:38:48;;;;;;;5.80;4.40;;;;;;;5.78;100.00;100130.16;176389;1266;46289;-84
2024/04/18 18:42:51;;;;;;;6.40;4.20;;;;;;;5.95;100.00;100136.31;176614;1264;58654;-83
2024/04/18 18:46:54;;;;;;;5.90;4.10;;;;;;;6.05;100.00;100139.70;176479;1262;46165;-84